Time;durP1;ratioP1;P1;durP2;ratioP2;P2;SDS_P1;SDS_P2;PMS_P1;PMS_P2;Temp;Humidity;BMP_temperature;BMP_pressure;BME280_temperature;BME280_humidity;BME280_pressure;Samples;Min_cycle;Max_cycle;Signal;HPM_P1;HPM_P2
2021/06/13 00:00:25;;;;;;;15.07;6.77;;;13.00;99.90;;;;;;5094987;28;20207;-62
2021/06/13 00:02:51;;;;;;;13.80;7.10;;;13.00;99.90;;;;;;5095504;28;20202;-62
2021/06/13 00:05:18;;;;;;;19.87;7.63;;;13.00;99.90;;;;;;5095267;28;20231;-62
2021/06/13 00:07:44;;;;;;;14.10;7.33;;;13.00;99.90;;;;;;5094688;28;20226;-62
2021/06/13 00:10:13;;;;;;;15.57;6.70;;;12.90;99.90;;;;;;5095249;28;20205;-62
2021/06/13 00:12:41;;;;;;;12.77;6.60;;;12.90;99.90;;;;;;5095054;28;20229;-62
2021/06/13 00:15:11;;;;;;;16.93;7.73;;;12.90;99.90;;;;;;5094586;28;20211;-62
2021/06/13 00:17:37;;;;;;;14.83;7.00;;;12.90;99.90;;;;;;5094204;28;20232;-62
2021/06/13 00:20:06;;;;;;;17.07;8.23;;;12.80;99.90;;;;;;5094039;28;20262;-62
2021/06/13 00:22:33;;;;;;;13.30;7.53;;;12.70;99.90;;;;;;5094497;28;20246;-62
2021/06/13 00:24:59;;;;;;;15.73;7.23;;;12.80;99.90;;;;;;5094226;28;20212;-62
2021/06/13 00:27:25;;;;;;;17.80;8.10;;;12.80;99.90;;;;;;5094308;28;20231;-62
2021/06/13 00:29:52;;;;;;;16.80;7.73;;;12.70;99.90;;;;;;5094200;28;20579;-63
2021/06/13 00:32:18;;;;;;;15.77;7.63;;;12.70;99.90;;;;;;5094104;28;20727;-62
2021/06/13 00:34:45;;;;;;;16.67;8.23;;;12.60;99.90;;;;;;5093841;28;20723;-62
2021/06/13 00:37:11;;;;;;;17.10;7.53;;;12.60;99.90;;;;;;5094128;28;20224;-62
2021/06/13 00:39:37;;;;;;;14.90;7.37;;;12.50;99.90;;;;;;5093986;28;20210;-62
2021/06/13 00:42:04;;;;;;;16.43;8.13;;;12.50;99.90;;;;;;5093810;28;20200;-62
2021/06/13 00:44:30;;;;;;;17.80;7.70;;;12.50;99.90;;;;;;5093983;28;20267;-62
2021/06/13 00:46:58;;;;;;;16.57;8.37;;;12.40;99.90;;;;;;5093732;28;20228;-62
2021/06/13 00:49:24;;;;;;;14.60;7.97;;;12.30;99.90;;;;;;5093706;28;20215;-62
2021/06/13 00:51:51;;;;;;;15.17;7.30;;;12.30;99.90;;;;;;5093603;28;20211;-62
2021/06/13 00:54:17;;;;;;;19.10;7.90;;;12.30;99.90;;;;;;5093941;28;20200;-62
2021/06/13 00:56:43;;;;;;;16.17;7.20;;;12.20;99.90;;;;;;5093598;28;20227;-62
2021/06/13 00:59:10;;;;;;;15.47;7.27;;;12.20;99.90;;;;;;5093695;28;20209;-62
2021/06/13 01:01:37;;;;;;;18.77;7.83;;;12.20;99.90;;;;;;5093204;28;20201;-62
2021/06/13 01:04:07;;;;;;;13.80;7.33;;;12.10;99.90;;;;;;5093730;28;20208;-62
2021/06/13 01:06:41;;;;;;;13.47;7.40;;;12.10;99.90;;;;;;5093280;28;20242;-62
2021/06/13 01:09:11;;;;;;;14.77;7.63;;;12.00;99.90;;;;;;5093579;28;20210;-63
2021/06/13 01:11:43;;;;;;;18.60;8.33;;;12.00;99.90;;;;;;5093056;28;20637;-62
2021/06/13 01:14:15;;;;;;;14.47;7.87;;;11.90;99.90;;;;;;5093190;28;20232;-62
2021/06/13 01:16:48;;;;;;;17.37;8.77;;;11.90;99.90;;;;;;5093306;28;20236;-63
2021/06/13 01:19:28;;;;;;;20.20;8.00;;;11.80;99.90;;;;;;5093399;28;20611;-62
2021/06/13 01:22:02;;;;;;;18.10;8.33;;;11.90;99.90;;;;;;5093093;28;20695;-62
2021/06/13 01:24:38;;;;;;;15.10;7.37;;;11.80;99.90;;;;;;5093198;28;20303;-62
2021/06/13 01:27:35;;;;;;;14.73;8.07;;;11.80;99.90;;;;;;5093252;28;20231;-62
2021/06/13 01:30:07;;;;;;;17.20;7.73;;;11.80;99.90;;;;;;5092891;28;20200;-62
2021/06/13 01:32:34;;;;;;;17.80;8.13;;;11.80;99.90;;;;;;5093043;28;20249;-62
2021/06/13 01:35:03;;;;;;;13.20;8.07;;;11.80;99.90;;;;;;5092741;28;20623;-62
2021/06/13 01:37:33;;;;;;;15.10;8.60;;;11.80;99.90;;;;;;5092446;28;20293;-64
2021/06/13 01:40:03;;;;;;;19.50;9.23;;;11.70;99.90;;;;;;5092788;28;20211;-64
2021/06/13 01:42:31;;;;;;;15.27;8.20;;;11.70;99.90;;;;;;5092929;28;20200;-62
2021/06/13 01:45:00;;;;;;;25.47;8.53;;;11.70;99.90;;;;;;5092877;28;20212;-61
2021/06/13 01:47:28;;;;;;;16.80;8.53;;;11.70;99.90;;;;;;5092573;28;20231;-62
2021/06/13 01:49:55;;;;;;;19.37;9.47;;;11.70;99.90;;;;;;5092776;28;20208;-62
2021/06/13 01:52:22;;;;;;;17.20;8.43;;;11.70;99.90;;;;;;5092666;28;20276;-62
2021/06/13 01:54:51;;;;;;;16.37;8.50;;;11.60;99.90;;;;;;5092539;28;20208;-62
2021/06/13 01:57:17;;;;;;;13.77;8.63;;;11.60;99.90;;;;;;5092559;28;20232;-62
2021/06/13 01:59:46;;;;;;;17.03;8.77;;;11.50;99.90;;;;;;5092434;28;20691;-62
2021/06/13 02:02:13;;;;;;;18.07;8.00;;;11.50;99.90;;;;;;5092354;28;20200;-62
2021/06/13 02:04:42;;;;;;;15.93;8.90;;;11.50;99.90;;;;;;5092658;28;20200;-62
2021/06/13 02:07:10;;;;;;;16.23;8.67;;;11.40;99.90;;;;;;5092125;28;20250;-63
2021/06/13 02:09:38;;;;;;;20.80;9.00;;;11.40;99.90;;;;;;5092548;28;20200;-62
2021/06/13 02:12:06;;;;;;;16.77;8.67;;;11.40;99.90;;;;;;5092081;28;20258;-62
2021/06/13 02:14:33;;;;;;;16.03;8.37;;;11.40;99.90;;;;;;5092155;28;20786;-62
2021/06/13 02:17:01;;;;;;;15.93;8.27;;;11.40;99.90;;;;;;5092171;28;20236;-62
2021/06/13 02:19:29;;;;;;;14.07;9.00;;;11.30;99.90;;;;;;5092324;28;20218;-62
2021/06/13 02:21:59;;;;;;;18.87;9.30;;;11.30;99.90;;;;;;5092103;28;20215;-62
2021/06/13 02:24:28;;;;;;;14.37;8.57;;;11.20;99.90;;;;;;5092250;28;20200;-62
2021/06/13 02:26:56;;;;;;;14.90;9.17;;;11.20;99.90;;;;;;5091946;28;20709;-62
2021/06/13 02:29:24;;;;;;;17.70;9.00;;;11.20;99.90;;;;;;5091976;28;20576;-62
2021/06/13 02:31:51;;;;;;;19.70;9.50;;;11.20;99.90;;;;;;5091950;28;20675;-62
2021/06/13 02:34:22;;;;;;;19.00;9.03;;;11.20;99.90;;;;;;5092227;28;20223;-62
2021/06/13 02:36:50;;;;;;;19.83;9.53;;;11.10;99.90;;;;;;5092031;28;20227;-62
2021/06/13 02:39:19;;;;;;;14.13;8.13;;;11.00;99.90;;;;;;5091971;28;20256;-62
2021/06/13 02:41:45;;;;;;;14.77;8.43;;;11.00;99.90;;;;;;5091741;28;20207;-62
2021/06/13 02:44:12;;;;;;;20.03;9.00;;;11.00;99.90;;;;;;5092100;28;20207;-64
2021/06/13 02:46:38;;;;;;;20.37;8.87;;;10.90;99.90;;;;;;5092182;28;20283;-62
2021/06/13 02:49:05;;;;;;;16.70;8.90;;;10.90;99.90;;;;;;5092847;28;20208;-62
2021/06/13 02:51:34;;;;;;;17.97;8.67;;;10.80;99.90;;;;;;5095889;28;20737;-62
2021/06/13 02:54:03;;;;;;;19.60;9.40;;;10.80;99.90;;;;;;5095847;28;20230;-62
2021/06/13 02:56:34;;;;;;;14.27;8.37;;;10.80;99.90;;;;;;5095866;28;20224;-62
2021/06/13 02:59:07;;;;;;;18.73;8.97;;;10.80;99.90;;;;;;5096122;28;20341;-62
2021/06/13 03:01:36;;;;;;;19.80;8.87;;;10.70;99.90;;;;;;5095788;28;20208;-62
2021/06/13 03:04:03;;;;;;;14.77;9.17;;;10.60;99.90;;;;;;5095878;28;20203;-62
2021/06/13 03:06:31;;;;;;;17.90;8.63;;;10.60;99.90;;;;;;5095783;28;20284;-62
2021/06/13 03:08:58;;;;;;;18.47;8.50;;;10.60;99.90;;;;;;5095706;28;20860;-62
2021/06/13 03:11:24;;;;;;;15.97;8.73;;;10.50;99.90;;;;;;5095468;28;20698;-62
2021/06/13 03:13:53;;;;;;;17.73;8.87;;;10.50;99.90;;;;;;5095685;28;20229;-62
2021/06/13 03:16:20;;;;;;;12.97;7.93;;;10.50;99.90;;;;;;5095469;28;20231;-62
2021/06/13 03:18:48;;;;;;;19.27;8.87;;;10.50;99.90;;;;;;5095658;28;20210;-62
2021/06/13 03:21:15;;;;;;;15.97;8.80;;;10.40;99.90;;;;;;5095187;28;20205;-62
2021/06/13 03:23:43;;;;;;;20.47;9.20;;;10.40;99.90;;;;;;5095655;28;20207;-62
2021/06/13 03:26:10;;;;;;;16.63;8.67;;;10.40;99.90;;;;;;5095460;28;20222;-62
2021/06/13 03:28:37;;;;;;;18.00;8.80;;;10.30;99.90;;;;;;5095568;28;20204;-62
2021/06/13 03:31:06;;;;;;;22.20;8.97;;;10.40;99.90;;;;;;5095153;28;20205;-62
2021/06/13 03:33:35;;;;;;;16.00;8.97;;;10.40;99.90;;;;;;5095311;28;20298;-62
2021/06/13 03:36:01;;;;;;;21.00;9.17;;;10.30;1.00;;;;;;5094962;28;20213;-62
2021/06/13 03:38:29;;;;;;;19.43;9.77;;;10.30;1.00;;;;;;5095334;28;20264;-62
2021/06/13 03:40:58;;;;;;;17.23;8.77;;;10.30;1.00;;;;;;5094966;28;20211;-62
2021/06/13 03:43:25;;;;;;;16.60;8.97;;;10.30;1.00;;;;;;5095089;28;20218;-62
2021/06/13 03:45:52;;;;;;;22.43;9.63;;;10.40;1.00;;;;;;5095098;28;20207;-62
2021/06/13 03:48:23;;;;;;;20.53;9.53;;;10.40;1.00;;;;;;5094820;28;20237;-62
2021/06/13 03:50:50;;;;;;;13.67;9.40;;;10.40;1.00;;;;;;5095049;28;20211;-62
2021/06/13 03:53:20;;;;;;;14.80;9.80;;;10.40;1.00;;;;;;5095065;28;20224;-62
2021/06/13 03:55:47;;;;;;;21.20;9.83;;;10.40;1.00;;;;;;5095052;28;20219;-62
2021/06/13 03:58:15;;;;;;;13.57;9.13;;;10.50;1.00;;;;;;5094703;28;20223;-62
2021/06/13 04:00:44;;;;;;;18.00;9.73;;;10.50;1.00;;;;;;5094012;28;20262;-62
2021/06/13 04:03:11;;;;;;;20.07;9.60;;;10.50;1.00;;;;;;5094858;28;20202;-62
2021/06/13 04:05:39;;;;;;;15.43;8.70;;;10.50;1.00;;;;;;5094811;28;20218;-62
2021/06/13 04:08:08;;;;;;;20.40;9.63;;;10.50;1.00;;;;;;5094818;28;20638;-62
2021/06/13 04:10:36;;;;;;;17.90;9.90;;;10.50;1.00;;;;;;5094491;28;20218;-62
2021/06/13 04:13:03;;;;;;;17.63;10.00;;;10.60;1.00;;;;;;5094848;28;20216;-62
2021/06/13 04:15:30;;;;;;;16.20;9.50;;;10.60;1.00;;;;;;5094241;28;20215;-62
2021/06/13 04:17:58;;;;;;;16.80;9.83;;;10.70;1.00;;;;;;5094475;28;20236;-62
2021/06/13 04:20:25;;;;;;;19.73;10.17;;;10.70;1.00;;;;;;5094466;28;20257;-62
2021/06/13 04:22:54;;;;;;;19.77;9.90;;;10.80;1.00;;;;;;5094342;28;20667;-62
2021/06/13 04:25:21;;;;;;;16.73;10.00;;;10.90;1.00;;;;;;5094310;28;20212;-62
2021/06/13 04:27:49;;;;;;;17.03;9.60;;;10.90;1.00;;;;;;5094176;28;20224;-62
2021/06/13 04:30:16;;;;;;;21.97;10.23;;;11.00;1.00;;;;;;5094169;28;20240;-62
2021/06/13 04:32:42;;;;;;;19.93;10.60;;;11.10;1.00;;;;;;5094274;28;20649;-62
2021/06/13 04:35:09;;;;;;;13.60;9.23;;;11.10;1.00;;;;;;5094166;28;20257;-62
2021/06/13 04:37:36;;;;;;;18.00;9.40;;;11.20;1.00;;;;;;5093950;28;20708;-62
2021/06/13 04:40:05;;;;;;;15.13;9.33;;;11.30;1.00;;;;;;5093940;28;20212;-62
2021/06/13 04:42:32;;;;;;;18.97;9.87;;;11.40;1.00;;;;;;5093741;28;20207;-62
2021/06/13 04:45:00;;;;;;;16.33;9.63;;;11.40;1.00;;;;;;5094099;28;20208;-62
2021/06/13 04:47:27;;;;;;;22.87;10.10;;;11.40;99.90;;;;;;5093915;28;20228;-62
2021/06/13 04:49:55;;;;;;;19.23;9.43;;;11.50;99.90;;;;;;5093858;28;20200;-62
2021/06/13 04:52:24;;;;;;;20.93;10.00;;;11.60;99.90;;;;;;5093752;28;20269;-62
2021/06/13 04:55:07;;;;;;;15.90;8.70;;;11.60;99.90;;;;;;5093574;28;20266;-62
2021/06/13 04:57:55;;;;;;;15.27;8.20;;;11.60;99.90;;;;;;5093661;28;20228;-62
2021/06/13 05:00:22;;;;;;;20.60;9.07;;;11.70;99.90;;;;;;5093691;28;20293;-62
2021/06/13 05:02:49;;;;;;;14.93;8.57;;;11.70;99.90;;;;;;5093502;28;20211;-62
2021/06/13 05:05:16;;;;;;;15.30;7.60;;;11.70;99.90;;;;;;5093700;28;20211;-62
2021/06/13 05:07:43;;;;;;;16.37;8.47;;;11.70;99.90;;;;;;5093126;28;20228;-62
2021/06/13 05:10:12;;;;;;;17.37;8.30;;;11.80;99.90;;;;;;5093471;28;20208;-62
2021/06/13 05:12:49;;;;;;;19.50;7.33;;;11.80;99.90;;;;;;5092481;28;20620;-62
2021/06/13 05:15:17;;;;;;;16.57;8.13;;;11.80;99.90;;;;;;5093544;28;20610;-62
2021/06/13 05:17:43;;;;;;;17.10;7.60;;;11.90;99.90;;;;;;5093195;28;20244;-62
2021/06/13 05:20:11;;;;;;;13.80;7.07;;;12.00;99.90;;;;;;5093063;28;20215;-62
2021/06/13 05:22:56;;;;;;;15.23;7.73;;;12.10;99.90;;;;;;5093355;28;20204;-62
2021/06/13 05:25:26;;;;;;;14.60;6.80;;;12.10;99.90;;;;;;5093117;28;20204;-63
2021/06/13 05:27:53;;;;;;;16.87;7.40;;;12.20;99.90;;;;;;5093024;28;20224;-62
2021/06/13 05:30:20;;;;;;;16.53;7.23;;;12.20;99.90;;;;;;5092705;28;20258;-62
2021/06/13 05:32:47;;;;;;;11.47;6.53;;;12.30;99.90;;;;;;5092930;28;20204;-62
2021/06/13 05:35:14;;;;;;;12.13;6.43;;;12.50;99.90;;;;;;5092871;28;20208;-62
2021/06/13 05:37:41;;;;;;;12.33;6.20;;;12.50;99.90;;;;;;5092944;28;20228;-62
2021/06/13 05:40:10;;;;;;;16.40;7.10;;;12.50;99.90;;;;;;5092771;28;20273;-62
2021/06/13 05:42:39;;;;;;;13.40;6.67;;;12.50;99.90;;;;;;5093077;28;20273;-62
2021/06/13 05:45:08;;;;;;;13.60;6.80;;;12.60;99.90;;;;;;5092657;28;20200;-62
2021/06/13 05:47:35;;;;;;;16.93;7.00;;;12.60;99.90;;;;;;5092927;28;20293;-62
2021/06/13 05:50:01;;;;;;;16.53;6.83;;;12.70;99.90;;;;;;5092525;28;20253;-62
2021/06/13 05:52:28;;;;;;;13.90;5.40;;;12.80;99.90;;;;;;5092808;28;20336;-62
2021/06/13 05:54:57;;;;;;;15.97;5.57;;;13.00;99.90;;;;;;5092604;28;20225;-62
2021/06/13 05:57:24;;;;;;;13.57;5.97;;;13.10;99.90;;;;;;5092333;28;20252;-62
2021/06/13 05:59:52;;;;;;;11.80;6.10;;;13.20;99.90;;;;;;5092479;28;20216;-62
2021/06/13 06:02:19;;;;;;;11.63;5.97;;;13.20;99.90;;;;;;5092297;28;20208;-62
2021/06/13 06:04:46;;;;;;;10.97;5.50;;;13.20;99.90;;;;;;5092421;28;20200;-62
2021/06/13 06:07:12;;;;;;;11.53;5.30;;;13.40;99.90;;;;;;5092324;28;20231;-62
2021/06/13 06:09:39;;;;;;;10.93;5.10;;;13.50;99.90;;;;;;5092464;28;20213;-62
2021/06/13 06:12:06;;;;;;;13.23;5.30;;;13.60;99.90;;;;;;5092191;28;20654;-62
2021/06/13 06:14:33;;;;;;;11.77;5.07;;;13.60;99.90;;;;;;5093331;28;20231;-62
2021/06/13 06:17:01;;;;;;;12.40;5.40;;;13.60;99.90;;;;;;5092637;28;20236;-62
2021/06/13 06:19:27;;;;;;;13.03;5.43;;;13.60;99.90;;;;;;5092209;28;20741;-63
2021/06/13 06:21:54;;;;;;;9.57;4.57;;;13.80;99.90;;;;;;5092373;28;20203;-62
2021/06/13 06:24:21;;;;;;;12.17;4.60;;;13.80;99.90;;;;;;5092359;28;20683;-63
2021/06/13 06:26:47;;;;;;;11.40;5.73;;;13.70;99.90;;;;;;5092263;28;20227;-62
2021/06/13 06:29:14;;;;;;;10.17;4.40;;;13.70;99.90;;;;;;5092440;28;20221;-62
2021/06/13 06:31:40;;;;;;;10.00;5.00;;;13.80;99.90;;;;;;5092753;28;20211;-62
2021/06/13 06:34:09;;;;;;;10.53;4.40;;;13.70;99.90;;;;;;5092310;28;20230;-63
2021/06/13 06:36:35;;;;;;;9.30;4.67;;;13.80;99.90;;;;;;5092300;28;20642;-63
2021/06/13 06:39:02;;;;;;;11.03;4.90;;;13.90;99.90;;;;;;5092143;28;20852;-63
2021/06/13 06:41:29;;;;;;;8.90;4.60;;;14.00;99.90;;;;;;5091751;28;20993;-65
2021/06/13 06:43:55;;;;;;;11.83;4.30;;;14.10;99.90;;;;;;5071780;28;20261;-63
2021/06/13 06:46:22;;;;;;;10.53;4.80;;;14.20;99.90;;;;;;5072335;28;20285;-63
2021/06/13 06:48:48;;;;;;;11.57;4.40;;;14.40;99.90;;;;;;5071423;28;20211;-63
2021/06/13 06:51:16;;;;;;;9.87;4.70;;;14.50;99.90;;;;;;5071625;28;20617;-63
2021/06/13 06:53:43;;;;;;;6.33;4.17;;;14.70;99.90;;;;;;5071889;28;20301;-63
2021/06/13 06:56:10;;;;;;;9.67;4.80;;;14.70;99.90;;;;;;5071643;28;20237;-63
2021/06/13 06:58:36;;;;;;;11.03;4.40;;;14.70;99.90;;;;;;5071880;28;20204;-63
2021/06/13 07:01:03;;;;;;;9.20;5.17;;;14.80;99.90;;;;;;5071316;28;20676;-63
2021/06/13 07:03:30;;;;;;;8.80;4.40;;;14.90;99.90;;;;;;5071914;28;20205;-63
2021/06/13 07:05:57;;;;;;;11.30;5.27;;;15.00;99.90;;;;;;5071463;28;20291;-63
2021/06/13 07:08:25;;;;;;;9.27;4.53;;;15.20;99.90;;;;;;5071208;28;20732;-63
2021/06/13 07:10:52;;;;;;;9.27;4.43;;;15.20;99.90;;;;;;5072134;28;20221;-63
2021/06/13 07:13:19;;;;;;;11.10;5.10;;;15.20;99.90;;;;;;5071536;28;20622;-63
2021/06/13 07:15:45;;;;;;;5.47;4.00;;;15.30;99.90;;;;;;5071517;28;20619;-63
2021/06/13 07:18:12;;;;;;;8.67;4.33;;;15.50;99.90;;;;;;5070873;28;20283;-64
2021/06/13 07:20:39;;;;;;;9.90;4.30;;;15.60;99.90;;;;;;5071101;28;20208;-64
2021/06/13 07:23:05;;;;;;;12.10;4.90;;;15.80;99.90;;;;;;5071286;28;20200;-64
2021/06/13 07:25:33;;;;;;;23.70;14.87;;;15.90;99.90;;;;;;5075782;28;20235;-63
2021/06/13 07:28:00;;;;;;;8.47;4.07;;;15.90;99.90;;;;;;5075646;28;20228;-64
2021/06/13 07:30:27;;;;;;;8.07;4.57;;;16.10;99.90;;;;;;5075747;28;20584;-63
2021/06/13 07:32:55;;;;;;;6.07;3.90;;;16.00;99.90;;;;;;5075980;28;20216;-63
2021/06/13 07:35:21;;;;;;;8.70;4.57;;;15.80;99.90;;;;;;5077503;28;20225;-64
2021/06/13 07:37:48;;;;;;;8.53;4.53;;;15.90;99.90;;;;;;5080405;28;20233;-63
2021/06/13 07:40:18;;;;;;;11.17;4.40;;;16.10;99.90;;;;;;5080360;28;20201;-64
2021/06/13 07:42:46;;;;;;;10.03;3.97;;;16.30;99.90;;;;;;5080711;28;20203;-63
2021/06/13 07:45:14;;;;;;;8.13;3.90;;;16.60;99.90;;;;;;5078079;28;20205;-63
2021/06/13 07:47:41;;;;;;;6.33;3.60;;;16.60;99.90;;;;;;5074872;28;20263;-63
2021/06/13 07:50:11;;;;;;;8.37;4.23;;;16.60;99.90;;;;;;5074451;28;20209;-63
2021/06/13 07:52:37;;;;;;;8.77;3.90;;;16.30;99.90;;;;;;5077828;28;20278;-63
2021/06/13 07:55:06;;;;;;;7.93;4.17;;;16.30;99.90;;;;;;5075266;28;20225;-63
2021/06/13 07:57:33;;;;;;;8.50;4.10;;;16.40;99.90;;;;;;5074694;28;20237;-63
2021/06/13 08:00:01;;;;;;;9.10;4.10;;;16.50;99.90;;;;;;5076403;28;20208;-63
2021/06/13 08:02:28;;;;;;;6.50;4.30;;;16.60;99.90;;;;;;5075491;28;20201;-63
2021/06/13 08:04:57;;;;;;;8.80;4.33;;;16.50;99.90;;;;;;5074739;28;20624;-63
2021/06/13 08:07:24;;;;;;;8.20;4.23;;;16.70;99.90;;;;;;5074663;28;20225;-63
2021/06/13 08:09:51;;;;;;;8.40;3.87;;;17.00;99.90;;;;;;5074857;28;20723;-64
2021/06/13 08:12:18;;;;;;;11.23;5.70;;;17.10;99.90;;;;;;5074892;28;20231;-64
2021/06/13 08:14:45;;;;;;;11.97;4.70;;;17.10;99.90;;;;;;5075561;28;20234;-63
2021/06/13 08:17:12;;;;;;;7.43;3.83;;;17.30;99.90;;;;;;5073830;28;20294;-63
2021/06/13 08:19:39;;;;;;;7.00;4.00;;;17.60;99.90;;;;;;5074117;28;20213;-63
2021/06/13 08:22:06;;;;;;;9.17;3.73;;;17.60;99.90;;;;;;5073935;28;20254;-63
2021/06/13 08:24:33;;;;;;;9.20;4.07;;;17.30;99.90;;;;;;5074191;28;20294;-63
2021/06/13 08:27:00;;;;;;;10.47;4.20;;;17.60;99.90;;;;;;5074171;28;20224;-63
2021/06/13 08:29:26;;;;;;;9.30;4.73;;;17.50;99.90;;;;;;5074264;28;20673;-63
2021/06/13 08:31:53;;;;;;;9.87;4.07;;;17.60;99.90;;;;;;5073571;28;20247;-63
2021/06/13 08:34:21;;;;;;;8.93;3.63;;;17.80;99.90;;;;;;5073926;28;20270;-63
2021/06/13 08:36:48;;;;;;;9.37;4.13;;;17.70;99.90;;;;;;5073481;28;20655;-63
2021/06/13 08:39:15;;;;;;;9.60;3.83;;;17.90;99.90;;;;;;5073908;28;20288;-63
2021/06/13 08:41:42;;;;;;;8.83;3.67;;;17.90;99.90;;;;;;5073510;28;20262;-63
2021/06/13 08:44:09;;;;;;;7.93;4.00;;;17.90;99.90;;;;;;5073513;28;20209;-63
2021/06/13 08:46:38;;;;;;;8.10;4.20;;;17.70;99.90;;;;;;5073604;28;20236;-63
2021/06/13 08:49:05;;;;;;;10.93;4.27;;;17.90;99.90;;;;;;5073521;28;20304;-63
2021/06/13 08:51:34;;;;;;;8.30;4.20;;;18.10;99.90;;;;;;5073081;28;20255;-63
2021/06/13 08:54:01;;;;;;;8.73;4.33;;;18.10;99.90;;;;;;5073209;28;20735;-63
2021/06/13 08:56:27;;;;;;;8.40;4.27;;;17.70;99.90;;;;;;5073414;28;20282;-63
2021/06/13 08:58:54;;;;;;;8.97;4.47;;;17.90;99.90;;;;;;5073179;28;20610;-63
2021/06/13 09:01:21;;;;;;;8.23;4.30;;;17.90;99.90;;;;;;5073097;28;20209;-63
2021/06/13 09:03:48;;;;;;;10.07;4.63;;;17.60;99.90;;;;;;5073265;28;20209;-63
2021/06/13 09:06:15;;;;;;;8.23;3.93;;;17.70;99.90;;;;;;5073442;28;20676;-64
2021/06/13 09:08:44;;;;;;;11.97;4.00;;;18.00;99.90;;;;;;5073222;28;20212;-64
2021/06/13 09:11:26;;;;;;;8.10;4.13;;;18.20;99.90;;;;;;5072913;28;20209;-64
2021/06/13 09:13:52;;;;;;;8.60;3.97;;;18.20;99.90;;;;;;5073130;28;20274;-64
2021/06/13 09:16:27;;;;;;;7.10;4.37;;;18.10;99.90;;;;;;5072882;28;20254;-63
2021/06/13 09:18:54;;;;;;;11.17;4.60;;;17.60;99.90;;;;;;5072941;28;20303;-63
2021/06/13 09:21:31;;;;;;;10.27;4.50;;;17.60;99.90;;;;;;5072538;28;20205;-63
2021/06/13 09:23:59;;;;;;;10.43;4.90;;;17.40;99.90;;;;;;5073024;28;20297;-63
2021/06/13 09:26:28;;;;;;;8.23;4.23;;;17.80;99.90;;;;;;5072909;28;20861;-64
2021/06/13 09:28:57;;;;;;;10.13;3.70;;;18.10;99.90;;;;;;5072494;28;20610;-64
2021/06/13 09:31:25;;;;;;;9.63;4.87;;;18.20;99.90;;;;;;5072292;28;20209;-63
2021/06/13 09:33:54;;;;;;;6.57;4.03;;;18.40;99.90;;;;;;5072670;28;20204;-64
2021/06/13 09:36:23;;;;;;;13.03;4.43;;;18.50;99.90;;;;;;5072135;28;20889;-63
2021/06/13 09:38:54;;;;;;;10.23;4.37;;;18.20;99.90;;;;;;5072534;28;20696;-63
2021/06/13 09:41:24;;;;;;;10.97;4.77;;;17.90;99.90;;;;;;5072181;28;20205;-63
2021/06/13 09:43:52;;;;;;;9.77;4.50;;;18.20;99.90;;;;;;5072535;28;20189;-64
2021/06/13 09:46:21;;;;;;;9.37;4.13;;;18.40;99.90;;;;;;5072350;28;20201;-63
2021/06/13 09:48:49;;;;;;;6.57;4.20;;;18.70;99.90;;;;;;5072031;28;20226;-65
2021/06/13 09:51:18;;;;;;;7.03;4.13;;;18.80;99.90;;;;;;5091947;28;20208;-64
2021/06/13 09:53:45;;;;;;;10.03;3.90;;;19.00;99.90;;;;;;5092349;28;20208;-65
2021/06/13 09:56:19;;;;;;;11.50;3.80;;;19.10;99.90;;;;;;5092172;28;20228;-63
2021/06/13 09:58:53;;;;;;;7.20;3.60;;;19.20;99.90;;;;;;5091756;28;20216;-64
2021/06/13 10:01:22;;;;;;;8.47;4.00;;;19.30;99.90;;;;;;5091780;28;20595;-63
2021/06/13 10:03:49;;;;;;;6.67;4.10;;;19.20;99.90;;;;;;5092282;28;20582;-63
2021/06/13 10:06:18;;;;;;;8.47;4.10;;;19.00;99.90;;;;;;5092611;28;20621;-67
2021/06/13 10:08:45;;;;;;;9.60;4.20;;;19.00;99.90;;;;;;5092628;28;20200;-66
2021/06/13 10:11:13;;;;;;;8.43;3.67;;;19.40;99.90;;;;;;5091286;28;20212;-66
2021/06/13 10:13:45;;;;;;;9.00;4.20;;;19.40;99.90;;;;;;5092010;28;20204;-65
2021/06/13 10:16:26;;;;;;;9.10;3.93;;;19.40;99.90;;;;;;5092122;28;20227;-65
2021/06/13 10:18:57;;;;;;;9.93;4.10;;;19.50;99.90;;;;;;5091996;28;20204;-66
2021/06/13 10:21:28;;;;;;;9.17;4.53;;;19.70;99.90;;;;;;5091654;28;20216;-69
2021/06/13 10:23:56;;;;;;;12.03;10.43;;;19.80;99.90;;;;;;5091705;28;20299;-67
2021/06/13 10:26:23;;;;;;;58.73;28.67;;;20.00;99.90;;;;;;5091530;28;20220;-67
2021/06/13 10:28:50;;;;;;;14.43;7.07;;;19.90;99.90;;;;;;5091964;28;20265;-66
2021/06/13 10:31:18;;;;;;;96.07;41.10;;;19.90;99.90;;;;;;5091575;28;20200;-67
2021/06/13 10:33:46;;;;;;;10.50;4.70;;;19.90;99.90;;;;;;5093354;28;20265;-65
2021/06/13 10:36:13;;;;;;;212.63;111.47;;;19.90;99.90;;;;;;5093406;28;20361;-65
2021/06/13 10:38:41;;;;;;;42.40;19.93;;;20.10;99.90;;;;;;5091888;28;20208;-68
2021/06/13 10:41:08;;;;;;;15.80;6.77;;;20.10;99.90;;;;;;5091320;28;20294;-69
2021/06/13 10:43:34;;;;;;;51.10;25.33;;;20.20;99.90;;;;;;5091753;28;20204;-68
2021/06/13 10:46:06;;;;;;;39.20;18.37;;;20.00;99.90;;;;;;5091696;28;20203;-68
2021/06/13 10:48:39;;;;;;;10.07;5.50;;;19.90;99.90;;;;;;5091469;28;20219;-69
2021/06/13 10:51:58;;;;;;;11.07;4.43;;;20.20;99.90;;;;;;5091019;28;20204;-67
2021/06/13 10:54:30;;;;;;;33.50;17.13;;;20.30;99.90;;;;;;5057959;28;20675;-66
2021/06/13 10:57:39;;;;;;;58.93;27.47;;;19.90;99.90;;;;;;5091728;28;20228;-66
2021/06/13 11:00:26;;;;;;;10.80;4.67;;;19.90;99.90;;;;;;5091122;28;20582;-66
2021/06/13 11:02:59;;;;;;;22.10;10.40;;;19.90;99.90;;;;;;5091550;28;20239;-66
2021/06/13 11:05:39;;;;;;;22.73;10.03;;;19.90;99.90;;;;;;5091486;28;20215;-65
2021/06/13 11:08:06;;;;;;;8.77;4.80;;;20.10;99.90;;;;;;5091775;28;20311;-66
2021/06/13 11:10:33;;;;;;;9.93;4.90;;;20.30;99.90;;;;;;5093412;28;20267;-66
2021/06/13 11:13:22;;;;;;;25.13;13.43;;;20.40;99.90;;;;;;5095901;28;20576;-66
2021/06/13 11:16:04;;;;;;;14.17;6.80;;;20.60;99.90;;;;;;5089862;28;20216;-66
2021/06/13 11:18:34;;;;;;;10.33;4.43;;;20.60;99.90;;;;;;5095182;28;20235;-66
2021/06/13 11:21:07;;;;;;;9.60;4.87;;;20.60;99.90;;;;;;5095042;28;20568;-66
2021/06/13 11:23:54;;;;;;;9.57;4.40;;;20.30;99.90;;;;;;5095390;28;20208;-67
2021/06/13 11:26:31;;;;;;;10.60;5.27;;;20.10;99.90;;;;;;5095061;28;20601;-66
2021/06/13 11:28:57;;;;;;;8.27;4.53;;;20.20;99.90;;;;;;5094848;28;20208;-66
2021/06/13 11:31:24;;;;;;;9.07;5.10;;;20.20;99.90;;;;;;5095107;28;20208;-66
2021/06/13 11:34:00;;;;;;;9.13;4.70;;;20.20;99.90;;;;;;5095119;28;20231;-66
2021/06/13 11:36:31;;;;;;;9.33;4.47;;;20.30;99.90;;;;;;5094893;28;20259;-66
2021/06/13 11:39:19;;;;;;;10.10;4.70;;;20.40;99.90;;;;;;5094768;28;20204;-65
2021/06/13 11:41:47;;;;;;;9.13;4.57;;;20.70;99.90;;;;;;5094729;28;20673;-65
2021/06/13 11:44:36;;;;;;;10.70;6.93;;;20.50;99.90;;;;;;5094962;28;20313;-66
2021/06/13 11:47:21;;;;;;;7.80;4.30;;;20.50;99.90;;;;;;5094875;28;20223;-65
2021/06/13 11:49:50;;;;;;;9.97;5.33;;;20.70;99.90;;;;;;5094289;28;20212;-65
2021/06/13 11:52:19;;;;;;;9.20;4.67;;;20.90;99.90;;;;;;5094802;28;20204;-65
2021/06/13 11:54:48;;;;;;;13.10;4.80;;;20.70;99.90;;;;;;5094669;28;20257;-64
2021/06/13 11:57:30;;;;;;;9.00;4.80;;;20.70;99.90;;;;;;5094786;28;20314;-65
2021/06/13 12:00:11;;;;;;;11.03;5.47;;;20.80;99.90;;;;;;5093977;28;20212;-65
2021/06/13 12:02:38;;;;;;;7.83;4.50;;;21.20;99.90;;;;;;5094755;28;20213;-66
2021/06/13 12:05:05;;;;;;;10.33;4.97;;;21.30;99.90;;;;;;5094418;28;20208;-65
2021/06/13 12:07:38;;;;;;;7.43;4.97;;;21.20;99.90;;;;;;5094230;28;20232;-65
2021/06/13 12:10:18;;;;;;;15.77;8.23;;;21.20;99.90;;;;;;5095547;28;20209;-65
2021/06/13 12:12:45;;;;;;;8.70;4.70;;;21.40;99.90;;;;;;5093989;28;20204;-66
2021/06/13 12:15:15;;;;;;;11.67;4.63;;;21.50;99.90;;;;;;5094463;28;20225;-66
2021/06/13 12:17:41;;;;;;;11.17;4.90;;;21.60;99.90;;;;;;5095937;28;20235;-65
2021/06/13 12:20:15;;;;;;;10.70;5.10;;;21.50;99.90;;;;;;5094093;28;20626;-64
2021/06/13 12:22:49;;;;;;;10.47;4.50;;;21.40;99.90;;;;;;5102009;28;20725;-64
2021/06/13 12:28:02;;;;;;;8.73;4.97;;;21.30;99.90;;;;;;5098507;28;20239;-65
2021/06/13 12:30:29;;;;;;;10.97;5.07;;;21.30;99.90;;;;;;5093837;28;20565;-65
2021/06/13 12:32:58;;;;;;;11.50;4.70;;;21.20;99.90;;;;;;5093797;28;20311;-65
2021/06/13 12:35:27;;;;;;;9.03;5.27;;;21.10;99.90;;;;;;5093839;28;20653;-65
2021/06/13 12:38:01;;;;;;;8.90;4.70;;;20.90;99.90;;;;;;5093959;28;20231;-66
2021/06/13 12:40:28;;;;;;;11.20;5.57;;;21.10;99.90;;;;;;5093518;28;20213;-65
2021/06/13 12:42:55;;;;;;;9.57;5.23;;;21.20;99.90;;;;;;5093950;28;20673;-65
2021/06/13 12:45:21;;;;;;;9.43;5.07;;;21.30;99.90;;;;;;5093657;28;20561;-64
2021/06/13 12:47:54;;;;;;;10.00;5.30;;;21.30;99.90;;;;;;5093601;28;20274;-65
2021/06/13 12:50:23;;;;;;;9.77;5.00;;;21.30;99.90;;;;;;5093625;28;20622;-66
2021/06/13 12:52:52;;;;;;;14.43;5.60;;;21.40;99.90;;;;;;5093961;28;20230;-65